Terminal Aerodrome Forecast
Issued by NWS

Home | Current Version | Previous Version | Text Only | Print | Product List | Glossary On
Versions: 1 2 3 4 5 6 7 8 9 10 11 12 13 14 15 16 17 18 19
000
FTUS43 KGRB 011500 AAA
TAFCWA
TAF AMD
KCWA 011511Z 0115/0212 04012G20KT P6SM -SN BKN020
      TEMPO 0115/0117 3SM -SN
     FM011700 04011G18KT P6SM SCT025 BKN070
     FM020000 01009KT P6SM SCT030 BKN100
     FM020600 35006KT P6SM FEW100=

USA.gov is the U.S. government's official web portal to all federal, state and local government web resources and services.